Aviation Digital Data Service (ADDS)

Output produced by METARs form (0012 UTC 23 February 2017)
found at http://aviationweather.gov/adds/metars/
 
KARA 222336Z 2300/2324 VRB05KT P6SM SKC 
     TEMPO 2309/2313 3SM BR 
     FM231700 19008KT P6SM SKC